sensor_id;sensor_type;location;lat;lon;timestamp;P1;durP1;ratioP1;P2;durP2;ratioP2
30571;SDS011;17348;50.948;10.696;2022-08-14T00:01:13;14.57;;;8.15;;
30571;SDS011;17348;50.948;10.696;2022-08-14T00:04:15;17.50;;;9.50;;
30571;SDS011;17348;50.948;10.696;2022-08-14T00:07:18;23.55;;;8.82;;
30571;SDS011;17348;50.948;10.696;2022-08-14T00:10:22;14.07;;;9.05;;
30571;SDS011;17348;50.948;10.696;2022-08-14T00:13:24;15.68;;;9.10;;
30571;SDS011;17348;50.948;10.696;2022-08-14T00:16:28;14.90;;;8.75;;
30571;SDS011;17348;50.948;10.696;2022-08-14T00:19:31;17.88;;;9.93;;
30571;SDS011;17348;50.948;10.696;2022-08-14T00:22:37;17.30;;;9.20;;
30571;SDS011;17348;50.948;10.696;2022-08-14T00:25:42;16.40;;;10.10;;
30571;SDS011;17348;50.948;10.696;2022-08-14T00:28:46;22.92;;;10.68;;
30571;SDS011;17348;50.948;10.696;2022-08-14T00:31:51;22.92;;;10.60;;
30571;SDS011;17348;50.948;10.696;2022-08-14T00:34:54;19.50;;;10.65;;
30571;SDS011;17348;50.948;10.696;2022-08-14T00:38:00;20.80;;;10.40;;
30571;SDS011;17348;50.948;10.696;2022-08-14T00:41:04;19.60;;;11.65;;
30571;SDS011;17348;50.948;10.696;2022-08-14T00:44:08;17.55;;;10.65;;
30571;SDS011;17348;50.948;10.696;2022-08-14T00:47:12;15.88;;;11.07;;
30571;SDS011;17348;50.948;10.696;2022-08-14T00:50:16;24.48;;;10.50;;
30571;SDS011;17348;50.948;10.696;2022-08-14T00:53:20;23.67;;;10.63;;
30571;SDS011;17348;50.948;10.696;2022-08-14T00:56:24;19.95;;;10.57;;
30571;SDS011;17348;50.948;10.696;2022-08-14T00:59:27;20.85;;;10.68;;
30571;SDS011;17348;50.948;10.696;2022-08-14T01:02:30;18.15;;;10.82;;
30571;SDS011;17348;50.948;10.696;2022-08-14T01:05:32;27.40;;;10.25;;
30571;SDS011;17348;50.948;10.696;2022-08-14T01:08:36;17.08;;;10.50;;
30571;SDS011;17348;50.948;10.696;2022-08-14T01:11:40;15.68;;;9.13;;
30571;SDS011;17348;50.948;10.696;2022-08-14T01:14:42;18.52;;;9.93;;
30571;SDS011;17348;50.948;10.696;2022-08-14T01:17:45;17.33;;;10.45;;
30571;SDS011;17348;50.948;10.696;2022-08-14T01:21:05;17.50;;;10.38;;
30571;SDS011;17348;50.948;10.696;2022-08-14T01:24:10;15.23;;;9.00;;
30571;SDS011;17348;50.948;10.696;2022-08-14T01:27:15;17.70;;;10.60;;
30571;SDS011;17348;50.948;10.696;2022-08-14T01:30:18;17.35;;;9.52;;
30571;SDS011;17348;50.948;10.696;2022-08-14T01:33:22;13.43;;;8.50;;
30571;SDS011;17348;50.948;10.696;2022-08-14T01:36:28;12.80;;;8.82;;
30571;SDS011;17348;50.948;10.696;2022-08-14T01:39:35;14.90;;;8.85;;
30571;SDS011;17348;50.948;10.696;2022-08-14T01:42:37;16.00;;;9.23;;
30571;SDS011;17348;50.948;10.696;2022-08-14T01:45:42;22.30;;;10.00;;
30571;SDS011;17348;50.948;10.696;2022-08-14T01:48:45;15.32;;;9.55;;
30571;SDS011;17348;50.948;10.696;2022-08-14T01:51:48;17.92;;;10.88;;
30571;SDS011;17348;50.948;10.696;2022-08-14T01:54:55;18.05;;;10.70;;
30571;SDS011;17348;50.948;10.696;2022-08-14T01:58:03;21.45;;;11.48;;
30571;SDS011;17348;50.948;10.696;2022-08-14T02:01:05;26.00;;;11.00;;
30571;SDS011;17348;50.948;10.696;2022-08-14T02:04:07;22.40;;;12.07;;
30571;SDS011;17348;50.948;10.696;2022-08-14T02:07:10;19.70;;;11.05;;
30571;SDS011;17348;50.948;10.696;2022-08-14T02:10:14;24.63;;;11.40;;
30571;SDS011;17348;50.948;10.696;2022-08-14T02:13:17;18.63;;;10.32;;
30571;SDS011;17348;50.948;10.696;2022-08-14T02:16:21;18.65;;;10.82;;
30571;SDS011;17348;50.948;10.696;2022-08-14T02:19:26;21.45;;;11.32;;
30571;SDS011;17348;50.948;10.696;2022-08-14T02:22:30;19.30;;;10.98;;
30571;SDS011;17348;50.948;10.696;2022-08-14T02:25:34;22.95;;;10.38;;
30571;SDS011;17348;50.948;10.696;2022-08-14T02:28:36;18.67;;;10.68;;
30571;SDS011;17348;50.948;10.696;2022-08-14T02:31:39;24.52;;;10.63;;
30571;SDS011;17348;50.948;10.696;2022-08-14T02:34:43;17.35;;;11.02;;
30571;SDS011;17348;50.948;10.696;2022-08-14T02:37:46;17.30;;;10.48;;
30571;SDS011;17348;50.948;10.696;2022-08-14T02:40:50;17.98;;;10.55;;
30571;SDS011;17348;50.948;10.696;2022-08-14T02:43:52;19.88;;;10.93;;
30571;SDS011;17348;50.948;10.696;2022-08-14T02:46:54;15.95;;;10.68;;
30571;SDS011;17348;50.948;10.696;2022-08-14T02:49:57;21.30;;;11.60;;
30571;SDS011;17348;50.948;10.696;2022-08-14T02:52:59;19.83;;;12.10;;
30571;SDS011;17348;50.948;10.696;2022-08-14T02:56:03;23.90;;;11.50;;
30571;SDS011;17348;50.948;10.696;2022-08-14T02:59:06;20.73;;;10.65;;
30571;SDS011;17348;50.948;10.696;2022-08-14T03:02:09;17.48;;;11.38;;
30571;SDS011;17348;50.948;10.696;2022-08-14T03:05:12;18.75;;;9.93;;
30571;SDS011;17348;50.948;10.696;2022-08-14T03:08:15;18.23;;;11.18;;
30571;SDS011;17348;50.948;10.696;2022-08-14T03:11:19;20.60;;;10.80;;
30571;SDS011;17348;50.948;10.696;2022-08-14T03:14:22;19.95;;;11.32;;
30571;SDS011;17348;50.948;10.696;2022-08-14T03:17:25;20.27;;;11.35;;
30571;SDS011;17348;50.948;10.696;2022-08-14T03:20:28;15.88;;;9.98;;
30571;SDS011;17348;50.948;10.696;2022-08-14T03:23:30;18.10;;;11.85;;
30571;SDS011;17348;50.948;10.696;2022-08-14T03:26:36;19.85;;;11.57;;
30571;SDS011;17348;50.948;10.696;2022-08-14T03:29:42;19.67;;;13.05;;
30571;SDS011;17348;50.948;10.696;2022-08-14T03:32:45;20.75;;;11.77;;
30571;SDS011;17348;50.948;10.696;2022-08-14T03:35:47;18.55;;;12.35;;
30571;SDS011;17348;50.948;10.696;2022-08-14T03:38:51;17.90;;;12.25;;
30571;SDS011;17348;50.948;10.696;2022-08-14T03:41:58;21.88;;;13.18;;
30571;SDS011;17348;50.948;10.696;2022-08-14T03:45:00;20.95;;;12.65;;
30571;SDS011;17348;50.948;10.696;2022-08-14T03:48:02;18.83;;;12.10;;
30571;SDS011;17348;50.948;10.696;2022-08-14T03:51:19;23.52;;;12.80;;
30571;SDS011;17348;50.948;10.696;2022-08-14T03:54:22;20.05;;;12.50;;
30571;SDS011;17348;50.948;10.696;2022-08-14T03:57:26;20.70;;;11.98;;
30571;SDS011;17348;50.948;10.696;2022-08-14T04:00:32;19.52;;;11.70;;
30571;SDS011;17348;50.948;10.696;2022-08-14T04:03:35;20.38;;;12.25;;
30571;SDS011;17348;50.948;10.696;2022-08-14T04:06:37;19.20;;;11.75;;
30571;SDS011;17348;50.948;10.696;2022-08-14T04:09:39;17.38;;;12.27;;
30571;SDS011;17348;50.948;10.696;2022-08-14T04:12:43;20.67;;;13.52;;
30571;SDS011;17348;50.948;10.696;2022-08-14T04:15:46;20.50;;;12.25;;
30571;SDS011;17348;50.948;10.696;2022-08-14T04:18:51;20.83;;;12.77;;
30571;SDS011;17348;50.948;10.696;2022-08-14T04:21:54;23.30;;;13.38;;
30571;SDS011;17348;50.948;10.696;2022-08-14T04:24:56;22.38;;;12.13;;
30571;SDS011;17348;50.948;10.696;2022-08-14T04:28:05;25.88;;;13.13;;
30571;SDS011;17348;50.948;10.696;2022-08-14T04:31:09;23.17;;;12.75;;
30571;SDS011;17348;50.948;10.696;2022-08-14T04:34:11;21.88;;;13.52;;
30571;SDS011;17348;50.948;10.696;2022-08-14T04:37:14;19.08;;;12.07;;
30571;SDS011;17348;50.948;10.696;2022-08-14T04:40:33;23.73;;;14.60;;
30571;SDS011;17348;50.948;10.696;2022-08-14T04:43:54;21.10;;;12.70;;
30571;SDS011;17348;50.948;10.696;2022-08-14T04:46:56;22.48;;;13.23;;
30571;SDS011;17348;50.948;10.696;2022-08-14T04:50:12;21.50;;;12.63;;
30571;SDS011;17348;50.948;10.696;2022-08-14T04:53:16;23.70;;;13.73;;
30571;SDS011;17348;50.948;10.696;2022-08-14T04:56:28;20.70;;;13.25;;
30571;SDS011;17348;50.948;10.696;2022-08-14T04:59:32;30.50;;;14.00;;
30571;SDS011;17348;50.948;10.696;2022-08-14T05:02:34;24.00;;;13.73;;
30571;SDS011;17348;50.948;10.696;2022-08-14T05:05:37;23.23;;;13.02;;
30571;SDS011;17348;50.948;10.696;2022-08-14T05:08:40;27.77;;;13.90;;
30571;SDS011;17348;50.948;10.696;2022-08-14T05:11:43;24.90;;;12.60;;
30571;SDS011;17348;50.948;10.696;2022-08-14T05:14:46;19.25;;;12.35;;
30571;SDS011;17348;50.948;10.696;2022-08-14T05:17:50;23.77;;;13.20;;
30571;SDS011;17348;50.948;10.696;2022-08-14T05:20:53;21.83;;;14.27;;
30571;SDS011;17348;50.948;10.696;2022-08-14T05:23:56;22.80;;;13.23;;
30571;SDS011;17348;50.948;10.696;2022-08-14T05:26:58;19.85;;;12.43;;
30571;SDS011;17348;50.948;10.696;2022-08-14T05:30:04;19.92;;;13.05;;
30571;SDS011;17348;50.948;10.696;2022-08-14T05:33:07;21.10;;;12.95;;
30571;SDS011;17348;50.948;10.696;2022-08-14T05:36:12;23.23;;;12.40;;
30571;SDS011;17348;50.948;10.696;2022-08-14T05:39:15;25.08;;;13.82;;
30571;SDS011;17348;50.948;10.696;2022-08-14T05:42:17;21.17;;;12.43;;
30571;SDS011;17348;50.948;10.696;2022-08-14T05:45:21;22.58;;;13.27;;
30571;SDS011;17348;50.948;10.696;2022-08-14T05:48:23;19.25;;;12.70;;
30571;SDS011;17348;50.948;10.696;2022-08-14T05:51:27;24.23;;;12.77;;
30571;SDS011;17348;50.948;10.696;2022-08-14T05:54:29;21.35;;;12.43;;
30571;SDS011;17348;50.948;10.696;2022-08-14T05:57:31;26.60;;;13.48;;
30571;SDS011;17348;50.948;10.696;2022-08-14T06:00:36;20.08;;;12.23;;
30571;SDS011;17348;50.948;10.696;2022-08-14T06:03:39;22.92;;;13.13;;
30571;SDS011;17348;50.948;10.696;2022-08-14T06:06:42;20.70;;;13.07;;
30571;SDS011;17348;50.948;10.696;2022-08-14T06:09:44;23.35;;;12.63;;
30571;SDS011;17348;50.948;10.696;2022-08-14T06:12:46;19.38;;;12.02;;
30571;SDS011;17348;50.948;10.696;2022-08-14T06:15:50;21.38;;;11.48;;
30571;SDS011;17348;50.948;10.696;2022-08-14T06:18:52;17.55;;;12.02;;
30571;SDS011;17348;50.948;10.696;2022-08-14T06:21:54;16.38;;;11.68;;
30571;SDS011;17348;50.948;10.696;2022-08-14T06:25:00;18.88;;;12.02;;
30571;SDS011;17348;50.948;10.696;2022-08-14T06:28:03;25.73;;;12.85;;
30571;SDS011;17348;50.948;10.696;2022-08-14T06:31:07;18.38;;;11.98;;
30571;SDS011;17348;50.948;10.696;2022-08-14T06:34:11;19.80;;;11.48;;
30571;SDS011;17348;50.948;10.696;2022-08-14T06:37:14;24.50;;;12.25;;
30571;SDS011;17348;50.948;10.696;2022-08-14T06:40:19;23.23;;;13.38;;
30571;SDS011;17348;50.948;10.696;2022-08-14T06:43:23;20.85;;;12.18;;
30571;SDS011;17348;50.948;10.696;2022-08-14T06:46:28;18.65;;;12.40;;
30571;SDS011;17348;50.948;10.696;2022-08-14T06:49:31;18.27;;;10.98;;
30571;SDS011;17348;50.948;10.696;2022-08-14T06:52:33;22.23;;;11.68;;
30571;SDS011;17348;50.948;10.696;2022-08-14T06:55:42;18.85;;;11.80;;
30571;SDS011;17348;50.948;10.696;2022-08-14T06:58:44;27.13;;;12.70;;
30571;SDS011;17348;50.948;10.696;2022-08-14T07:01:48;16.60;;;11.38;;
30571;SDS011;17348;50.948;10.696;2022-08-14T07:08:28;16.40;;;10.48;;
30571;SDS011;17348;50.948;10.696;2022-08-14T07:11:32;16.73;;;10.80;;
30571;SDS011;17348;50.948;10.696;2022-08-14T07:14:34;20.45;;;10.77;;
30571;SDS011;17348;50.948;10.696;2022-08-14T07:17:44;14.55;;;10.00;;
30571;SDS011;17348;50.948;10.696;2022-08-14T07:20:47;14.70;;;10.10;;
30571;SDS011;17348;50.948;10.696;2022-08-14T07:23:49;17.98;;;10.35;;
30571;SDS011;17348;50.948;10.696;2022-08-14T07:26:52;18.38;;;10.07;;
30571;SDS011;17348;50.948;10.696;2022-08-14T07:29:54;19.98;;;10.30;;
30571;SDS011;17348;50.948;10.696;2022-08-14T07:32:58;14.90;;;10.25;;
30571;SDS011;17348;50.948;10.696;2022-08-14T07:36:02;14.27;;;9.65;;
30571;SDS011;17348;50.948;10.696;2022-08-14T07:39:07;21.23;;;10.25;;
30571;SDS011;17348;50.948;10.696;2022-08-14T07:42:09;18.20;;;9.32;;
30571;SDS011;17348;50.948;10.696;2022-08-14T07:45:11;17.65;;;9.98;;
30571;SDS011;17348;50.948;10.696;2022-08-14T07:48:15;13.52;;;9.65;;
30571;SDS011;17348;50.948;10.696;2022-08-14T07:51:18;14.30;;;10.00;;
30571;SDS011;17348;50.948;10.696;2022-08-14T07:54:20;14.55;;;9.45;;
30571;SDS011;17348;50.948;10.696;2022-08-14T07:57:23;12.65;;;9.55;;
30571;SDS011;17348;50.948;10.696;2022-08-14T08:00:27;14.68;;;10.02;;
30571;SDS011;17348;50.948;10.696;2022-08-14T08:03:31;23.55;;;10.80;;
30571;SDS011;17348;50.948;10.696;2022-08-14T08:06:35;13.73;;;9.25;;
30571;SDS011;17348;50.948;10.696;2022-08-14T08:09:40;21.73;;;9.13;;
30571;SDS011;17348;50.948;10.696;2022-08-14T08:12:44;14.23;;;9.50;;
30571;SDS011;17348;50.948;10.696;2022-08-14T08:15:50;13.38;;;8.82;;
30571;SDS011;17348;50.948;10.696;2022-08-14T08:18:58;15.43;;;9.80;;
30571;SDS011;17348;50.948;10.696;2022-08-14T08:22:01;14.20;;;9.45;;
30571;SDS011;17348;50.948;10.696;2022-08-14T08:25:06;12.80;;;8.88;;
30571;SDS011;17348;50.948;10.696;2022-08-14T08:28:09;13.63;;;8.07;;
30571;SDS011;17348;50.948;10.696;2022-08-14T08:31:13;16.33;;;8.63;;
30571;SDS011;17348;50.948;10.696;2022-08-14T08:34:17;17.60;;;8.13;;
30571;SDS011;17348;50.948;10.696;2022-08-14T08:37:20;16.58;;;8.90;;
30571;SDS011;17348;50.948;10.696;2022-08-14T08:40:23;10.73;;;7.30;;
30571;SDS011;17348;50.948;10.696;2022-08-14T08:43:27;12.63;;;8.30;;
30571;SDS011;17348;50.948;10.696;2022-08-14T08:46:31;11.00;;;7.63;;
30571;SDS011;17348;50.948;10.696;2022-08-14T08:49:36;10.63;;;7.10;;
30571;SDS011;17348;50.948;10.696;2022-08-14T08:52:45;11.60;;;6.75;;
30571;SDS011;17348;50.948;10.696;2022-08-14T08:55:52;8.35;;;6.15;;
30571;SDS011;17348;50.948;10.696;2022-08-14T08:58:55;8.63;;;6.63;;
30571;SDS011;17348;50.948;10.696;2022-08-14T09:01:58;13.23;;;6.80;;
30571;SDS011;17348;50.948;10.696;2022-08-14T09:05:03;8.75;;;5.95;;
30571;SDS011;17348;50.948;10.696;2022-08-14T09:08:10;12.52;;;7.22;;
30571;SDS011;17348;50.948;10.696;2022-08-14T09:11:14;9.45;;;6.35;;
30571;SDS011;17348;50.948;10.696;2022-08-14T09:14:17;10.60;;;6.50;;
30571;SDS011;17348;50.948;10.696;2022-08-14T09:17:19;12.60;;;6.88;;
30571;SDS011;17348;50.948;10.696;2022-08-14T09:20:23;8.90;;;6.40;;
30571;SDS011;17348;50.948;10.696;2022-08-14T09:23:26;11.60;;;6.95;;
30571;SDS011;17348;50.948;10.696;2022-08-14T09:26:29;10.40;;;5.95;;
30571;SDS011;17348;50.948;10.696;2022-08-14T09:29:31;8.50;;;5.43;;
30571;SDS011;17348;50.948;10.696;2022-08-14T09:32:37;8.45;;;6.05;;
30571;SDS011;17348;50.948;10.696;2022-08-14T09:35:56;12.50;;;6.18;;
30571;SDS011;17348;50.948;10.696;2022-08-14T09:39:09;14.07;;;5.78;;
30571;SDS011;17348;50.948;10.696;2022-08-14T09:42:31;8.88;;;6.30;;
30571;SDS011;17348;50.948;10.696;2022-08-14T09:45:44;14.15;;;5.28;;
30571;SDS011;17348;50.948;10.696;2022-08-14T09:48:56;9.55;;;5.55;;
30571;SDS011;17348;50.948;10.696;2022-08-14T09:52:04;7.85;;;5.57;;
30571;SDS011;17348;50.948;10.696;2022-08-14T09:55:14;8.95;;;5.43;;
30571;SDS011;17348;50.948;10.696;2022-08-14T09:58:19;8.40;;;5.93;;
30571;SDS011;17348;50.948;10.696;2022-08-14T10:01:21;8.95;;;5.88;;
30571;SDS011;17348;50.948;10.696;2022-08-14T10:04:25;12.70;;;5.25;;
30571;SDS011;17348;50.948;10.696;2022-08-14T10:07:30;7.18;;;4.85;;
30571;SDS011;17348;50.948;10.696;2022-08-14T10:10:34;6.97;;;4.53;;
30571;SDS011;17348;50.948;10.696;2022-08-14T10:13:37;6.05;;;4.63;;
30571;SDS011;17348;50.948;10.696;2022-08-14T10:16:41;10.32;;;4.78;;
30571;SDS011;17348;50.948;10.696;2022-08-14T10:19:46;7.35;;;4.95;;
30571;SDS011;17348;50.948;10.696;2022-08-14T10:22:50;9.98;;;5.00;;
30571;SDS011;17348;50.948;10.696;2022-08-14T10:25:56;8.13;;;4.70;;
30571;SDS011;17348;50.948;10.696;2022-08-14T10:29:05;6.32;;;4.30;;
30571;SDS011;17348;50.948;10.696;2022-08-14T10:32:09;8.63;;;4.88;;
30571;SDS011;17348;50.948;10.696;2022-08-14T10:35:14;7.72;;;4.78;;
30571;SDS011;17348;50.948;10.696;2022-08-14T10:38:26;8.43;;;5.25;;
30571;SDS011;17348;50.948;10.696;2022-08-14T10:41:36;9.27;;;4.13;;
30571;SDS011;17348;50.948;10.696;2022-08-14T10:44:40;6.07;;;4.38;;
30571;SDS011;17348;50.948;10.696;2022-08-14T10:47:47;7.90;;;5.20;;
30571;SDS011;17348;50.948;10.696;2022-08-14T10:50:50;10.27;;;5.45;;
30571;SDS011;17348;50.948;10.696;2022-08-14T10:53:54;8.98;;;4.75;;
30571;SDS011;17348;50.948;10.696;2022-08-14T10:56:58;9.52;;;5.80;;
30571;SDS011;17348;50.948;10.696;2022-08-14T11:00:12;9.05;;;5.30;;
30571;SDS011;17348;50.948;10.696;2022-08-14T11:03:16;7.30;;;5.18;;
30571;SDS011;17348;50.948;10.696;2022-08-14T11:06:18;11.48;;;5.90;;
30571;SDS011;17348;50.948;10.696;2022-08-14T11:09:23;9.82;;;4.80;;
30571;SDS011;17348;50.948;10.696;2022-08-14T11:12:25;9.93;;;5.97;;
30571;SDS011;17348;50.948;10.696;2022-08-14T11:15:39;7.70;;;5.10;;
30571;SDS011;17348;50.948;10.696;2022-08-14T11:18:45;8.93;;;4.88;;
30571;SDS011;17348;50.948;10.696;2022-08-14T11:21:48;9.77;;;5.20;;
30571;SDS011;17348;50.948;10.696;2022-08-14T11:24:53;10.68;;;5.60;;
30571;SDS011;17348;50.948;10.696;2022-08-14T11:27:56;11.20;;;5.80;;
30571;SDS011;17348;50.948;10.696;2022-08-14T11:31:01;9.52;;;5.90;;
30571;SDS011;17348;50.948;10.696;2022-08-14T11:34:04;8.45;;;5.22;;
30571;SDS011;17348;50.948;10.696;2022-08-14T11:37:07;9.52;;;6.10;;
30571;SDS011;17348;50.948;10.696;2022-08-14T11:40:15;13.38;;;5.65;;
30571;SDS011;17348;50.948;10.696;2022-08-14T11:43:18;9.02;;;5.50;;
30571;SDS011;17348;50.948;10.696;2022-08-14T11:46:21;5.93;;;4.72;;
30571;SDS011;17348;50.948;10.696;2022-08-14T11:49:25;9.95;;;5.07;;
30571;SDS011;17348;50.948;10.696;2022-08-14T11:52:32;9.90;;;5.25;;
30571;SDS011;17348;50.948;10.696;2022-08-14T11:55:38;8.40;;;5.95;;
30571;SDS011;17348;50.948;10.696;2022-08-14T11:58:40;8.25;;;5.40;;
30571;SDS011;17348;50.948;10.696;2022-08-14T12:01:43;7.43;;;5.53;;
30571;SDS011;17348;50.948;10.696;2022-08-14T12:04:49;8.68;;;5.80;;
30571;SDS011;17348;50.948;10.696;2022-08-14T12:07:53;8.40;;;5.80;;
30571;SDS011;17348;50.948;10.696;2022-08-14T12:10:56;7.82;;;5.70;;
30571;SDS011;17348;50.948;10.696;2022-08-14T12:14:05;8.70;;;5.20;;
30571;SDS011;17348;50.948;10.696;2022-08-14T12:17:09;12.95;;;5.60;;
30571;SDS011;17348;50.948;10.696;2022-08-14T12:20:12;5.72;;;5.03;;
30571;SDS011;17348;50.948;10.696;2022-08-14T12:23:19;7.97;;;5.32;;
30571;SDS011;17348;50.948;10.696;2022-08-14T12:26:24;8.00;;;5.47;;
30571;SDS011;17348;50.948;10.696;2022-08-14T12:29:27;8.52;;;5.45;;
30571;SDS011;17348;50.948;10.696;2022-08-14T12:32:37;9.52;;;5.50;;
30571;SDS011;17348;50.948;10.696;2022-08-14T12:38:43;8.55;;;4.65;;
30571;SDS011;17348;50.948;10.696;2022-08-14T12:41:49;7.93;;;5.13;;
30571;SDS011;17348;50.948;10.696;2022-08-14T12:44:55;11.18;;;5.75;;
30571;SDS011;17348;50.948;10.696;2022-08-14T12:48:00;5.95;;;4.80;;
30571;SDS011;17348;50.948;10.696;2022-08-14T12:51:04;6.10;;;4.38;;
30571;SDS011;17348;50.948;10.696;2022-08-14T12:54:18;6.28;;;4.43;;
30571;SDS011;17348;50.948;10.696;2022-08-14T12:57:22;6.13;;;4.50;;
30571;SDS011;17348;50.948;10.696;2022-08-14T13:00:36;7.50;;;4.30;;
30571;SDS011;17348;50.948;10.696;2022-08-14T13:03:39;9.05;;;4.90;;
30571;SDS011;17348;50.948;10.696;2022-08-14T13:06:45;6.70;;;4.70;;
30571;SDS011;17348;50.948;10.696;2022-08-14T13:09:53;6.07;;;4.30;;
30571;SDS011;17348;50.948;10.696;2022-08-14T13:12:56;6.38;;;4.30;;
30571;SDS011;17348;50.948;10.696;2022-08-14T13:15:59;6.35;;;4.07;;
30571;SDS011;17348;50.948;10.696;2022-08-14T13:19:03;7.15;;;4.95;;
30571;SDS011;17348;50.948;10.696;2022-08-14T13:22:05;10.88;;;4.80;;
30571;SDS011;17348;50.948;10.696;2022-08-14T13:25:09;16.08;;;5.45;;
30571;SDS011;17348;50.948;10.696;2022-08-14T13:28:14;7.63;;;4.72;;
30571;SDS011;17348;50.948;10.696;2022-08-14T13:31:16;11.50;;;5.07;;
30571;SDS011;17348;50.948;10.696;2022-08-14T13:34:23;6.78;;;4.72;;
30571;SDS011;17348;50.948;10.696;2022-08-14T13:37:29;11.98;;;5.07;;
30571;SDS011;17348;50.948;10.696;2022-08-14T13:40:32;7.93;;;5.22;;
30571;SDS011;17348;50.948;10.696;2022-08-14T13:43:36;8.43;;;4.97;;
30571;SDS011;17348;50.948;10.696;2022-08-14T13:46:39;7.03;;;4.57;;
30571;SDS011;17348;50.948;10.696;2022-08-14T13:49:44;7.50;;;4.88;;
30571;SDS011;17348;50.948;10.696;2022-08-14T13:52:47;7.60;;;4.93;;
30571;SDS011;17348;50.948;10.696;2022-08-14T13:55:53;4.85;;;4.30;;
30571;SDS011;17348;50.948;10.696;2022-08-14T13:58:58;6.57;;;5.00;;
30571;SDS011;17348;50.948;10.696;2022-08-14T14:02:03;6.25;;;4.63;;
30571;SDS011;17348;50.948;10.696;2022-08-14T14:05:06;5.78;;;4.75;;
30571;SDS011;17348;50.948;10.696;2022-08-14T14:08:11;7.60;;;4.43;;
30571;SDS011;17348;50.948;10.696;2022-08-14T14:11:16;6.60;;;4.80;;
30571;SDS011;17348;50.948;10.696;2022-08-14T14:14:25;12.90;;;4.82;;
30571;SDS011;17348;50.948;10.696;2022-08-14T14:17:28;13.23;;;5.20;;
30571;SDS011;17348;50.948;10.696;2022-08-14T14:20:31;9.20;;;5.15;;
30571;SDS011;17348;50.948;10.696;2022-08-14T14:23:35;13.40;;;4.38;;
30571;SDS011;17348;50.948;10.696;2022-08-14T14:26:38;8.35;;;5.53;;
30571;SDS011;17348;50.948;10.696;2022-08-14T14:29:45;6.97;;;5.00;;
30571;SDS011;17348;50.948;10.696;2022-08-14T14:32:51;7.32;;;4.50;;
30571;SDS011;17348;50.948;10.696;2022-08-14T14:35:56;10.43;;;5.18;;
30571;SDS011;17348;50.948;10.696;2022-08-14T14:39:02;12.10;;;5.20;;
30571;SDS011;17348;50.948;10.696;2022-08-14T14:42:07;6.45;;;4.93;;
30571;SDS011;17348;50.948;10.696;2022-08-14T14:45:12;7.53;;;4.82;;
30571;SDS011;17348;50.948;10.696;2022-08-14T14:48:18;6.43;;;4.75;;
30571;SDS011;17348;50.948;10.696;2022-08-14T14:51:21;6.38;;;4.57;;
30571;SDS011;17348;50.948;10.696;2022-08-14T14:54:23;7.70;;;4.97;;
30571;SDS011;17348;50.948;10.696;2022-08-14T14:57:26;12.48;;;4.82;;
30571;SDS011;17348;50.948;10.696;2022-08-14T15:00:31;10.23;;;4.60;;
30571;SDS011;17348;50.948;10.696;2022-08-14T15:03:34;7.47;;;5.28;;
30571;SDS011;17348;50.948;10.696;2022-08-14T15:06:37;9.02;;;5.57;;
30571;SDS011;17348;50.948;10.696;2022-08-14T15:09:40;7.68;;;5.22;;
30571;SDS011;17348;50.948;10.696;2022-08-14T15:12:43;5.60;;;4.47;;
30571;SDS011;17348;50.948;10.696;2022-08-14T15:15:48;7.05;;;5.07;;
30571;SDS011;17348;50.948;10.696;2022-08-14T15:18:50;10.38;;;5.43;;
30571;SDS011;17348;50.948;10.696;2022-08-14T15:21:52;8.00;;;5.13;;
30571;SDS011;17348;50.948;10.696;2022-08-14T15:24:55;12.50;;;5.32;;
30571;SDS011;17348;50.948;10.696;2022-08-14T15:27:57;11.35;;;6.32;;
30571;SDS011;17348;50.948;10.696;2022-08-14T15:31:02;7.30;;;5.18;;
30571;SDS011;17348;50.948;10.696;2022-08-14T15:34:05;12.07;;;5.18;;
30571;SDS011;17348;50.948;10.696;2022-08-14T15:37:14;7.05;;;4.82;;
30571;SDS011;17348;50.948;10.696;2022-08-14T15:40:16;9.20;;;5.70;;
30571;SDS011;17348;50.948;10.696;2022-08-14T15:43:19;8.20;;;4.93;;
30571;SDS011;17348;50.948;10.696;2022-08-14T15:46:23;11.23;;;5.13;;
30571;SDS011;17348;50.948;10.696;2022-08-14T15:49:26;9.38;;;5.15;;
30571;SDS011;17348;50.948;10.696;2022-08-14T15:52:29;8.63;;;5.20;;
30571;SDS011;17348;50.948;10.696;2022-08-14T15:55:32;7.40;;;5.20;;
30571;SDS011;17348;50.948;10.696;2022-08-14T15:58:37;9.25;;;5.45;;
30571;SDS011;17348;50.948;10.696;2022-08-14T16:01:40;6.30;;;5.10;;
30571;SDS011;17348;50.948;10.696;2022-08-14T16:04:41;9.57;;;5.40;;
30571;SDS011;17348;50.948;10.696;2022-08-14T16:07:44;13.00;;;5.05;;
30571;SDS011;17348;50.948;10.696;2022-08-14T16:10:46;9.43;;;5.10;;
30571;SDS011;17348;50.948;10.696;2022-08-14T16:13:49;10.55;;;5.10;;
30571;SDS011;17348;50.948;10.696;2022-08-14T16:16:53;6.68;;;4.80;;
30571;SDS011;17348;50.948;10.696;2022-08-14T16:19:55;7.47;;;4.78;;
30571;SDS011;17348;50.948;10.696;2022-08-14T16:23:00;9.88;;;5.30;;
30571;SDS011;17348;50.948;10.696;2022-08-14T16:26:04;6.70;;;4.68;;
30571;SDS011;17348;50.948;10.696;2022-08-14T16:29:06;7.93;;;5.13;;
30571;SDS011;17348;50.948;10.696;2022-08-14T16:32:16;12.45;;;5.18;;
30571;SDS011;17348;50.948;10.696;2022-08-14T16:35:19;9.38;;;4.63;;
30571;SDS011;17348;50.948;10.696;2022-08-14T16:38:23;4.47;;;3.92;;
30571;SDS011;17348;50.948;10.696;2022-08-14T16:41:27;8.90;;;4.70;;
30571;SDS011;17348;50.948;10.696;2022-08-14T16:44:30;10.18;;;4.05;;
30571;SDS011;17348;50.948;10.696;2022-08-14T16:47:40;8.00;;;4.45;;
30571;SDS011;17348;50.948;10.696;2022-08-14T16:50:42;9.52;;;4.72;;
30571;SDS011;17348;50.948;10.696;2022-08-14T16:53:45;7.88;;;4.13;;
30571;SDS011;17348;50.948;10.696;2022-08-14T16:56:48;6.70;;;4.72;;
30571;SDS011;17348;50.948;10.696;2022-08-14T16:59:52;8.02;;;4.20;;
30571;SDS011;17348;50.948;10.696;2022-08-14T17:03:00;7.30;;;5.20;;
30571;SDS011;17348;50.948;10.696;2022-08-14T17:06:04;13.68;;;4.85;;
30571;SDS011;17348;50.948;10.696;2022-08-14T17:09:09;8.40;;;4.53;;
30571;SDS011;17348;50.948;10.696;2022-08-14T17:12:27;14.45;;;6.22;;
30571;SDS011;17348;50.948;10.696;2022-08-14T17:15:31;7.32;;;4.85;;
30571;SDS011;17348;50.948;10.696;2022-08-14T17:18:38;6.72;;;4.70;;
30571;SDS011;17348;50.948;10.696;2022-08-14T17:21:42;7.45;;;4.85;;
30571;SDS011;17348;50.948;10.696;2022-08-14T17:24:44;9.10;;;5.05;;
30571;SDS011;17348;50.948;10.696;2022-08-14T17:28:07;15.95;;;5.43;;
30571;SDS011;17348;50.948;10.696;2022-08-14T17:31:11;6.57;;;5.35;;
30571;SDS011;17348;50.948;10.696;2022-08-14T17:34:15;8.32;;;5.53;;
30571;SDS011;17348;50.948;10.696;2022-08-14T17:37:22;7.13;;;4.80;;
30571;SDS011;17348;50.948;10.696;2022-08-14T17:40:28;6.45;;;4.40;;
30571;SDS011;17348;50.948;10.696;2022-08-14T17:43:31;13.77;;;5.80;;
30571;SDS011;17348;50.948;10.696;2022-08-14T17:46:34;9.55;;;5.00;;
30571;SDS011;17348;50.948;10.696;2022-08-14T17:49:43;7.30;;;4.97;;
30571;SDS011;17348;50.948;10.696;2022-08-14T17:52:47;7.93;;;5.50;;
30571;SDS011;17348;50.948;10.696;2022-08-14T17:55:49;18.17;;;7.30;;
30571;SDS011;17348;50.948;10.696;2022-08-14T17:58:55;9.57;;;4.90;;
30571;SDS011;17348;50.948;10.696;2022-08-14T18:02:00;12.82;;;5.57;;
30571;SDS011;17348;50.948;10.696;2022-08-14T18:05:06;6.82;;;5.32;;